Time;durP1;ratioP1;P1;durP2;ratioP2;P2;SDS_P1;SDS_P2;PMS_P1;PMS_P2;Temp;Humidity;BMP_temperature;BMP_pressure;BME280_temperature;BME280_humidity;BME280_pressure;Samples;Min_cycle;Max_cycle;Signal;HPM_P1;HPM_P2
2022/05/16 00:00:17;;;;;;;6.25;3.45;;;;;;;11.20;72.97;100634.99;2883954;82;21112;-86
2022/05/16 00:04:21;;;;;;;8.73;3.60;;;;;;;11.17;72.74;100636.54;2922412;80;21546;-85
2022/05/16 00:08:22;;;;;;;9.08;3.92;;;;;;;11.14;72.15;100636.78;2934976;80;21625;-86
2022/05/16 00:12:23;;;;;;;11.43;4.45;;;;;;;11.04;71.36;100636.66;2906249;81;21069;-85
2022/05/16 00:16:24;;;;;;;9.65;3.83;;;;;;;10.97;71.83;100640.28;2805687;81;20975;-86
2022/05/16 00:20:25;;;;;;;12.98;4.20;;;;;;;10.89;71.33;100638.71;2909253;81;21043;-85
2022/05/16 00:24:28;;;;;;;11.00;4.12;;;;;;;10.80;71.14;100642.07;2868699;81;21058;-86
2022/05/16 00:28:29;;;;;;;11.30;3.85;;;;;;;10.63;72.47;100634.93;2909372;80;21066;-85
2022/05/16 00:32:30;;;;;;;13.68;4.28;;;;;;;10.56;72.09;100631.03;2922270;81;21169;-86
2022/05/16 00:36:31;;;;;;;12.82;4.35;;;;;;;10.49;72.33;100640.45;2907172;81;21003;-85
2022/05/16 00:40:32;;;;;;;7.35;3.30;;;;;;;10.48;72.85;100641.42;2926905;80;21065;-86
2022/05/16 00:44:34;;;;;;;5.12;3.15;;;;;;;10.48;72.41;100644.91;2922219;81;21063;-86
2022/05/16 00:48:36;;;;;;;5.92;4.55;;;;;;;10.46;72.50;100638.03;2905581;81;21153;-86
2022/05/16 00:52:41;;;;;;;4.83;3.33;;;;;;;10.40;72.63;100630.86;2904643;81;22153;-86
2022/05/16 00:56:43;;;;;;;8.13;4.00;;;;;;;10.40;73.02;100640.63;2865483;81;21043;-85
2022/05/16 01:00:48;;;;;;;4.42;2.90;;;;;;;10.41;73.29;100646.34;2904861;81;21039;-86
2022/05/16 01:04:49;;;;;;;5.55;3.33;;;;;;;10.38;73.04;100643.89;2906433;81;21054;-85
2022/05/16 01:08:50;;;;;;;7.90;3.17;;;;;;;10.34;72.82;100645.09;2913209;80;21051;-84
2022/05/16 01:12:53;;;;;;;5.90;4.53;;;;;;;10.32;73.07;100654.50;2906421;81;21046;-86
2022/05/16 01:16:54;;;;;;;7.03;3.83;;;;;;;10.31;73.62;100652.81;2903363;81;21071;-86
2022/05/16 01:21:18;;;;;;;5.83;3.80;;;;;;;10.33;73.62;100644.73;2899430;81;21105;-86
2022/05/16 01:25:27;;;;;;;5.15;3.72;;;;;;;10.28;73.38;100649.05;2919296;81;21027;-85
2022/05/16 01:29:28;;;;;;;3.95;2.67;;;;;;;10.22;73.61;100647.70;2906205;81;21015;-86
2022/05/16 01:33:29;;;;;;;7.37;5.87;;;;;;;10.14;74.01;100649.59;2841115;81;21029;-86
2022/05/16 01:41:50;;;;;;;8.00;4.28;;;;;;;9.97;75.15;100652.65;2889227;81;21066;-85
2022/05/16 01:45:52;;;;;;;7.65;5.62;;;;;;;9.85;75.52;100663.23;2829570;81;21003;-85
2022/05/16 01:49:53;;;;;;;4.85;3.30;;;;;;;9.75;75.93;100660.86;2911157;81;21020;-86
2022/05/16 01:53:54;;;;;;;5.05;3.70;;;;;;;9.75;74.61;100660.86;2860419;81;20998;-85
2022/05/16 01:57:55;;;;;;;7.22;4.92;;;;;;;9.70;74.54;100662.52;2902588;81;21101;-86
2022/05/16 02:01:56;;;;;;;7.80;4.33;;;;;;;9.69;74.91;100657.33;2911469;80;21542;-86
2022/05/16 02:05:58;;;;;;;5.47;3.72;;;;;;;9.51;76.02;100659.48;2910845;81;21042;-87
2022/05/16 02:09:59;;;;;;;3.85;3.37;;;;;;;9.47;75.92;100658.88;2902380;81;21054;-85
2022/05/16 02:14:00;;;;;;;11.63;5.75;;;;;;;9.48;75.74;100665.89;2894956;81;21061;-86
2022/05/16 02:18:02;;;;;;;7.08;4.55;;;;;;;9.48;75.72;100667.21;2905289;80;21002;-85
2022/05/16 02:26:24;;;;;;;8.20;5.05;;;;;;;9.45;75.46;100660.80;2917230;81;21016;-85
2022/05/16 02:30:25;;;;;;;8.65;5.72;;;;;;;9.42;75.64;100659.66;2902494;80;21074;-85
2022/05/16 02:34:26;;;;;;;5.85;3.55;;;;;;;9.39;75.58;100652.78;2858653;80;21061;-86
2022/05/16 02:38:27;;;;;;;4.95;3.83;;;;;;;9.38;75.47;100659.05;2884342;80;21498;-85
2022/05/16 02:42:28;;;;;;;5.17;4.30;;;;;;;9.33;75.98;100659.00;2901371;81;21664;-86
2022/05/16 02:46:31;;;;;;;6.58;4.55;;;;;;;9.29;76.45;100645.95;2924154;79;21109;-85
2022/05/16 02:50:32;;;;;;;6.12;3.85;;;;;;;9.32;76.51;100650.67;2926473;80;21043;-86
2022/05/16 02:54:33;;;;;;;7.50;4.37;;;;;;;9.37;76.07;100653.84;2927126;80;21027;-85
2022/05/16 02:58:34;;;;;;;13.98;5.65;;;;;;;9.36;75.40;100645.05;2891077;80;21073;-88
2022/05/16 03:02:36;;;;;;;8.30;5.15;;;;;;;9.33;75.07;100636.44;2912181;80;21074;-87
2022/05/16 03:06:37;;;;;;;20.95;5.55;;;;;;;9.31;75.65;100639.68;2916217;80;21070;-87
2022/05/16 03:10:38;;;;;;;9.88;5.40;;;;;;;9.32;75.61;100648.02;2941348;80;21023;-85
2022/05/16 03:14:40;;;;;;;10.08;5.12;;;;;;;9.34;75.68;100646.96;2864809;80;21105;-86
2022/05/16 03:18:41;;;;;;;6.62;4.55;;;;;;;9.37;76.29;100644.08;2899837;79;21011;-86
2022/05/16 03:22:42;;;;;;;7.15;5.53;;;;;;;9.42;76.53;100646.38;2905323;80;20956;-87
2022/05/16 03:26:43;;;;;;;5.80;5.17;;;;;;;9.45;76.38;100650.17;2920072;80;21035;-87
2022/05/16 03:30:45;;;;;;;63.42;12.35;;;;;;;9.50;76.57;100652.48;2908151;80;21102;-88
2022/05/16 03:34:53;;;;;;;20.75;5.62;;;;;;;9.60;76.66;100653.53;2922826;80;21097;-87
2022/05/16 03:43:15;;;;;;;9.35;3.62;;;;;;;9.66;76.80;100644.28;2910664;81;21039;-87
2022/05/16 03:47:16;;;;;;;23.77;6.47;;;;;;;9.74;76.77;100647.71;2913843;81;21051;-88
2022/05/16 03:51:17;;;;;;;37.93;8.88;;;;;;;9.81;76.99;100643.14;2870693;81;21046;-87
2022/05/16 03:55:18;;;;;;;8.25;5.17;;;;;;;9.90;77.02;100640.29;2865058;81;20994;-87
2022/05/16 03:59:19;;;;;;;21.15;4.65;;;;;;;9.94;77.17;100628.96;2920600;80;21492;-88
2022/05/16 04:03:20;;;;;;;7.10;4.20;;;;;;;10.07;77.84;100635.08;2858634;81;21471;-89
2022/05/16 04:07:22;;;;;;;19.02;8.75;;;;;;;10.24;78.17;100626.33;2920011;80;21630;-88
2022/05/16 04:11:23;;;;;;;220.45;34.40;;;;;;;10.62;79.23;100626.59;2866270;80;21011;-85
2022/05/16 04:15:25;;;;;;;70.75;12.70;;;;;;;11.74;79.63;100635.64;2911340;80;21042;-93
2022/05/16 04:19:26;;;;;;;30.43;8.65;;;;;;;12.95;78.23;100636.30;2888382;81;21519;-88
2022/05/16 04:23:27;;;;;;;12.95;5.10;;;;;;;14.23;78.43;100643.33;2905143;81;21082;-91
2022/05/16 04:27:28;;;;;;;14.40;6.25;;;;;;;15.37;77.14;100647.87;2938764;80;21486;-88
2022/05/16 04:31:30;;;;;;;18.85;6.65;;;;;;;16.50;72.58;100643.14;2901791;81;21038;-88
2022/05/16 04:35:31;;;;;;;14.30;5.65;;;;;;;17.42;68.43;100648.08;2938285;80;21066;-86
2022/05/16 04:39:32;;;;;;;8.13;5.05;;;;;;;18.25;66.77;100650.49;2919800;80;21557;-86
2022/05/16 04:43:33;;;;;;;12.98;4.50;;;;;;;19.01;62.56;100648.59;2921232;80;21585;-87
2022/05/16 04:47:34;;;;;;;9.28;4.95;;;;;;;19.58;61.73;100654.78;2924646;80;20978;-88
2022/05/16 04:51:35;;;;;;;9.10;5.67;;;;;;;20.33;60.07;100656.02;2926966;80;20963;-88
2022/05/16 04:55:37;;;;;;;4.70;3.95;;;;;;;20.79;58.00;100661.00;2904351;81;20974;-86
2022/05/16 04:59:38;;;;;;;8.60;4.30;;;;;;;21.13;56.15;100663.73;2910188;81;21034;-86
2022/05/16 05:03:41;;;;;;;8.75;4.50;;;;;;;21.57;56.42;100662.52;2904782;81;20998;-87
2022/05/16 05:07:44;;;;;;;5.12;3.98;;;;;;;22.02;55.40;100667.35;2919456;80;21014;-88
2022/05/16 05:16:14;;;;;;;13.03;4.80;;;;;;;22.54;52.92;100657.73;2911865;81;21058;-88
2022/05/16 05:20:17;;;;;;;7.35;4.53;;;;;;;22.85;52.45;100661.08;2905222;82;20987;-88
2022/05/16 05:24:18;;;;;;;7.67;5.65;;;;;;;23.24;51.56;100664.56;2915557;81;21034;-88
2022/05/16 05:28:19;;;;;;;8.08;4.42;;;;;;;23.51;51.03;100661.17;2913094;81;21095;-86
2022/05/16 05:32:20;;;;;;;5.83;3.55;;;;;;;23.89;50.32;100659.83;2910593;81;21021;-87
2022/05/16 05:36:22;;;;;;;5.47;3.25;;;;;;;23.90;47.84;100666.93;2891357;81;21435;-87
2022/05/16 05:40:24;;;;;;;5.92;4.12;;;;;;;23.88;46.12;100661.72;2912929;81;20996;-88
2022/05/16 05:44:25;;;;;;;5.12;3.58;;;;;;;23.37;47.50;100658.90;2906866;82;21601;-87
2022/05/16 05:48:26;;;;;;;7.12;3.95;;;;;;;23.59;48.39;100655.55;2919845;81;21014;-88
2022/05/16 05:52:28;;;;;;;14.15;5.20;;;;;;;23.92;47.52;100656.69;2903382;81;21011;-87
2022/05/16 05:56:29;;;;;;;7.45;4.50;;;;;;;24.07;45.94;100656.03;2923156;80;21010;-87
2022/05/16 06:00:30;;;;;;;22.93;6.30;;;;;;;24.06;46.51;100659.79;2903034;80;21055;-86
2022/05/16 06:04:31;;;;;;;8.80;4.60;;;;;;;23.74;47.66;100652.67;2924427;80;21523;-88
2022/05/16 06:08:32;;;;;;;7.60;5.05;;;;;;;23.30;49.02;100652.61;2920547;80;21049;-87
2022/05/16 06:12:34;;;;;;;10.18;5.10;;;;;;;23.37;49.25;100649.40;2925957;80;20982;-85
2022/05/16 06:16:35;;;;;;;11.88;5.12;;;;;;;23.53;49.04;100644.98;2923908;80;21054;-88
2022/05/16 06:20:37;;;;;;;6.58;5.12;;;;;;;23.62;49.01;100644.28;2918378;80;21003;-88
2022/05/16 06:28:57;;;;;;;6.30;4.10;;;;;;;23.64;49.51;100649.52;2914119;80;21125;-87
2022/05/16 06:32:58;;;;;;;7.60;5.12;;;;;;;23.68;50.83;100645.35;2891227;80;21030;-88
2022/05/16 06:36:59;;;;;;;6.10;4.45;;;;;;;23.61;50.01;100643.15;2925651;80;21075;-87
2022/05/16 06:41:00;;;;;;;7.78;3.72;;;;;;;23.65;48.86;100644.41;2927704;80;21003;-88
2022/05/16 06:45:02;;;;;;;7.65;4.12;;;;;;;23.53;49.17;100636.84;2925881;80;21053;-87
2022/05/16 06:49:03;;;;;;;8.35;4.17;;;;;;;22.79;49.76;100639.16;2927777;80;20999;-87
2022/05/16 06:53:05;;;;;;;6.62;4.08;;;;;;;22.45;50.53;100636.67;2913271;80;21069;-87
2022/05/16 06:57:06;;;;;;;8.98;4.25;;;;;;;22.44;50.64;100636.88;2924604;80;21014;-87
2022/05/16 07:01:07;;;;;;;4.97;4.10;;;;;;;22.55;50.33;100637.72;2901608;80;20992;-88
2022/05/16 07:05:09;;;;;;;6.22;4.00;;;;;;;22.63;49.73;100633.52;2912679;80;21006;-87
2022/05/16 07:09:10;;;;;;;9.18;4.25;;;;;;;22.74;50.33;100641.63;2924832;80;21006;-88
2022/05/16 07:13:13;;;;;;;8.10;4.03;;;;;;;22.87;49.67;100644.94;2916386;80;21097;-87
2022/05/16 07:17:15;;;;;;;10.13;3.67;;;;;;;22.86;50.12;100642.41;2895065;80;21033;-88
2022/05/16 07:21:15;;;;;;;7.62;3.60;;;;;;;22.62;50.90;100633.20;2938636;80;21042;-88
2022/05/16 07:25:22;;;;;;;6.53;3.85;;;;;;;22.61;51.73;100642.88;2911620;80;20999;-87
2022/05/16 07:29:23;;;;;;;9.13;3.72;;;;;;;22.79;50.62;100634.23;2924991;80;21530;-87
2022/05/16 07:33:25;;;;;;;14.70;4.37;;;;;;;22.89;51.17;100633.37;2914049;79;21050;-86
2022/05/16 07:37:26;;;;;;;3.55;2.33;;;;;;;22.84;51.80;100637.20;2915975;80;21112;-88
2022/05/16 07:41:29;;;;;;;8.68;3.65;;;;;;;22.59;51.28;100630.04;2921851;80;20991;-87
2022/05/16 07:45:32;;;;;;;5.53;3.67;;;;;;;22.40;52.02;100630.50;2942397;80;23377;-85
2022/05/16 07:49:33;;;;;;;4.55;2.67;;;;;;;22.75;52.16;100617.55;2917819;80;20982;-85
2022/05/16 07:53:34;;;;;;;5.67;2.95;;;;;;;23.20;51.57;100622.59;2902947;81;20951;-87
2022/05/16 07:57:35;;;;;;;3.08;2.37;;;;;;;23.58;48.68;100619.95;2886617;79;21505;-85
2022/05/16 08:01:38;;;;;;;4.60;2.85;;;;;;;23.75;49.05;100629.91;2822156;81;21010;-88
2022/05/16 08:05:40;;;;;;;3.72;2.50;;;;;;;23.82;48.21;100619.91;2938172;80;21033;-87
2022/05/16 08:14:00;;;;;;;4.70;3.08;;;;;;;24.16;48.82;100625.92;2901437;81;21054;-86
2022/05/16 08:18:02;;;;;;;7.10;2.83;;;;;;;24.35;48.31;100627.81;2917348;81;21070;-87
2022/05/16 08:22:04;;;;;;;10.03;2.92;;;;;;;24.45;47.49;100626.58;2880804;81;21023;-87
2022/05/16 08:26:05;;;;;;;71.65;14.58;;;;;;;24.58;46.23;100633.37;2839310;81;21010;-86
2022/05/16 08:30:08;;;;;;;8.93;3.02;;;;;;;24.67;47.66;100630.73;2861882;81;20975;-87
2022/05/16 08:34:09;;;;;;;4.70;2.37;;;;;;;24.75;47.02;100632.43;2910296;81;21050;-87
2022/05/16 08:42:54;;;;;;;6.58;2.65;;;;;;;24.80;45.93;100620.92;2917047;81;21015;-87
2022/05/16 08:47:13;;;;;;;35.98;6.20;;;;;;;25.00;46.53;100620.86;2903278;81;21039;-86
2022/05/16 08:51:25;;;;;;;3.52;1.50;;;;;;;25.10;44.04;100624.49;2906075;81;21007;-88
2022/05/16 08:55:46;;;;;;;2.80;1.80;;;;;;;25.14;42.76;100614.84;2908468;81;21109;-87
2022/05/16 08:59:53;;;;;;;9.25;3.47;;;;;;;25.01;42.56;100614.37;2861546;81;21085;-87
2022/05/16 09:04:05;;;;;;;3.52;3.22;;;;;;;25.02;43.47;100615.22;2904508;81;21060;-87
2022/05/16 09:08:13;;;;;;;25.30;19.05;;;;;;;25.07;44.65;100608.59;2896023;81;21081;-88
2022/05/16 09:12:32;;;;;;;6.90;3.75;;;;;;;25.23;42.82;100612.20;2961332;80;21086;-87
2022/05/16 09:16:56;;;;;;;3.37;1.70;;;;;;;25.44;45.54;100605.30;2899533;81;21027;-88
2022/05/16 09:21:20;;;;;;;7.53;2.62;;;;;;;25.43;42.30;100592.23;2932194;80;20983;-87
2022/05/16 09:25:29;;;;;;;4.28;1.72;;;;;;;25.48;43.15;100595.16;2929508;80;20976;-88
2022/05/16 09:29:42;;;;;;;4.05;1.25;;;;;;;25.45;42.75;100590.63;2913877;80;21029;-87
2022/05/16 09:33:49;;;;;;;2.35;1.60;;;;;;;25.45;42.45;100581.09;2912219;80;21003;-87
2022/05/16 09:37:53;;;;;;;4.22;2.52;;;;;;;25.46;41.33;100579.53;2916317;80;21002;-87
2022/05/16 09:42:06;;;;;;;1.77;1.10;;;;;;;25.41;42.49;100574.42;2932921;80;21026;-88
2022/05/16 09:46:34;;;;;;;2.65;1.50;;;;;;;25.48;42.27;100585.63;2924731;80;21035;-85
2022/05/16 09:50:35;;;;;;;2.08;1.02;;;;;;;25.52;40.77;100600.47;2898991;80;21426;-88
2022/05/16 09:54:38;;;;;;;3.33;1.57;;;;;;;25.43;41.50;100593.59;2898811;81;21546;-85
2022/05/16 09:58:49;;;;;;;2.55;0.88;;;;;;;25.47;41.59;100585.31;2929725;80;21513;-86
2022/05/16 10:03:08;;;;;;;4.22;1.15;;;;;;;25.69;40.99;100591.78;2928811;80;21065;-87
2022/05/16 10:07:10;;;;;;;2.40;1.27;;;;;;;25.89;41.31;100590.81;2930454;80;21019;-86
2022/05/16 10:11:19;;;;;;;3.33;1.40;;;;;;;26.02;40.68;100578.47;2922063;80;21069;-87
2022/05/16 10:15:21;;;;;;;4.25;0.80;;;;;;;26.07;40.56;100574.54;2924956;80;20971;-88
2022/05/16 10:19:27;;;;;;;2.83;1.20;;;;;;;26.18;40.02;100565.38;2905620;80;21035;-87
2022/05/16 10:23:33;;;;;;;1.60;0.75;;;;;;;26.04;39.85;100574.98;2895395;80;21034;-87
2022/05/16 10:27:38;;;;;;;1.22;0.78;;;;;;;25.84;40.66;100564.77;2902207;80;21038;-87
2022/05/16 10:36:28;;;;;;;1.65;1.17;;;;;;;25.98;39.72;100557.33;2914350;80;22465;-85
2022/05/16 10:40:47;;;;;;;4.17;1.30;;;;;;;25.83;38.77;100559.02;2934364;80;21019;-87
2022/05/16 10:44:56;;;;;;;4.45;1.77;;;;;;;25.75;39.42;100554.67;2910856;80;21054;-87
2022/05/16 10:49:16;;;;;;;4.85;1.17;;;;;;;25.64;39.09;100542.59;2929238;80;21067;-87
2022/05/16 10:53:34;;;;;;;5.62;1.90;;;;;;;25.54;40.54;100533.55;2898212;80;21275;-86
2022/05/16 10:58:14;;;;;;;3.77;1.55;;;;;;;25.68;42.02;100536.19;2961219;80;20975;-87
2022/05/16 11:02:37;;;;;;;1.20;0.80;;;;;;;25.75;39.96;100531.00;2905290;81;21031;-85
2022/05/16 11:07:00;;;;;;;1.40;0.93;;;;;;;25.94;39.73;100533.76;2908662;81;21094;-87
2022/05/16 11:11:28;;;;;;;4.95;1.30;;;;;;;26.12;39.52;100521.25;2875018;81;21459;-88
2022/05/16 11:15:40;;;;;;;1.92;1.02;;;;;;;26.08;39.01;100521.70;2919687;81;21015;-88
2022/05/16 11:20:10;;;;;;;4.78;1.35;;;;;;;26.27;41.50;100521.77;2893236;81;20991;-85
2022/05/16 11:24:32;;;;;;;1.50;1.10;;;;;;;26.30;38.90;100522.67;2916113;81;20994;-87
2022/05/16 11:29:17;;;;;;;2.17;1.32;;;;;;;26.18;39.31;100521.77;2909175;81;21046;-88
2022/05/16 11:33:26;;;;;;;2.52;1.30;;;;;;;26.21;39.36;100521.31;2844796;82;21038;-87
2022/05/16 11:37:57;;;;;;;1.47;1.00;;;;;;;26.31;38.56;100531.16;2872034;82;21044;-87
2022/05/16 11:42:23;;;;;;;2.45;1.12;;;;;;;26.27;38.99;100519.59;2818279;83;21042;-85
2022/05/16 11:46:33;;;;;;;1.07;0.62;;;;;;;26.25;38.18;100510.25;2835832;83;20998;-87
2022/05/16 11:51:11;;;;;;;2.52;1.50;;;;;;;26.25;39.37;100493.08;2842456;83;21034;-87
2022/05/16 12:04:21;;;;;;;3.17;1.60;;;;;;;26.45;39.46;100473.77;2826890;84;21033;-86
2022/05/16 12:08:39;;;;;;;10.63;1.47;;;;;;;26.41;38.88;100463.02;2866273;80;21024;-87
2022/05/16 12:12:45;;;;;;;2.20;1.37;;;;;;;26.40;38.24;100457.26;2935003;80;20992;-87
2022/05/16 12:17:06;;;;;;;3.62;1.70;;;;;;;26.37;38.82;100455.30;2939534;80;21035;-86
2022/05/16 12:21:32;;;;;;;13.58;2.45;;;;;;;26.52;39.13;100454.91;2919590;80;21027;-86
2022/05/16 12:25:37;;;;;;;4.05;1.25;;;;;;;26.64;37.61;100450.87;2913994;81;21053;-87
2022/05/16 12:29:46;;;;;;;3.80;1.47;;;;;;;26.79;38.52;100443.65;2880445;81;21026;-85
2022/05/16 12:33:51;;;;;;;7.40;1.65;;;;;;;26.98;37.66;100448.28;2909113;81;21036;-87
2022/05/16 12:37:53;;;;;;;3.67;1.02;;;;;;;27.04;38.64;100443.25;2929374;80;21046;-86
2022/05/16 12:42:17;;;;;;;4.08;1.47;;;;;;;27.08;37.71;100436.26;2937975;80;21020;-87
2022/05/16 12:46:57;;;;;;;3.10;1.35;;;;;;;27.04;38.11;100432.33;2915651;81;21063;-87
2022/05/16 12:51:28;;;;;;;5.40;1.77;;;;;;;27.09;38.13;100420.17;2909684;81;20988;-86
2022/05/16 12:56:08;;;;;;;3.60;2.15;;;;;;;27.22;38.22;100413.70;2910460;81;21092;-87
2022/05/16 13:00:18;;;;;;;2.00;1.20;;;;;;;27.25;38.34;100416.48;2791631;85;21022;-87
2022/05/16 13:04:41;;;;;;;5.03;1.95;;;;;;;27.25;37.79;100416.48;2787356;85;21007;-87
2022/05/16 13:08:54;;;;;;;43.85;6.90;;;;;;;27.05;38.24;100412.16;2788616;85;21047;-88
2022/05/16 13:13:10;;;;;;;8.50;2.83;;;;;;;26.86;39.53;100410.84;2786238;85;21007;-88
2022/05/16 13:17:26;;;;;;;;;;;;;;;26.84;40.14;100406.13;2788719;83;21050;-86
2022/05/16 13:21:42;;;;;;;2.17;1.45;;;;;;;26.84;38.49;100402.58;2783351;85;20132;-88
2022/05/16 13:30:11;;;;;;;5.72;3.15;;;;;;;27.23;41.53;100384.78;2803731;83;21058;-85
2022/05/16 13:34:17;;;;;;;3.60;1.10;;;;;;;27.34;39.04;100378.23;2853854;81;21017;-84
2022/05/16 13:38:18;;;;;;;2.58;2.10;;;;;;;27.37;38.12;100383.22;2936304;80;21015;-86
2022/05/16 13:42:21;;;;;;;4.10;2.25;;;;;;;27.36;38.79;100378.27;2926709;79;21043;-86
2022/05/16 13:46:26;;;;;;;1.50;1.40;;;;;;;27.35;40.03;100381.26;2941903;80;21058;-90
2022/05/16 13:50:30;;;;;;;;;;;;;;;27.38;39.10;100372.04;2931236;80;21465;-90
2022/05/16 13:54:35;;;;;;;5.87;1.50;;;;;;;27.47;37.99;100371.70;2928878;80;20087;-88
2022/05/16 13:58:37;;;;;;;3.37;1.42;;;;;;;27.53;38.44;100357.67;2923745;80;21038;-85
2022/05/16 14:02:40;;;;;;;5.15;1.77;;;;;;;27.50;38.57;100349.37;2937131;80;21093;-94
2022/05/16 14:06:50;;;;;;;3.05;1.92;;;;;;;27.53;40.88;100344.02;2936431;80;21002;-85
2022/05/16 14:10:52;;;;;;;2.05;1.42;;;;;;;27.68;40.47;100342.16;2909890;80;21070;-84
2022/05/16 14:14:53;;;;;;;4.55;1.42;;;;;;;27.78;40.19;100342.37;2931807;80;21075;-85
2022/05/16 14:19:12;;;;;;;2.02;1.30;;;;;;;27.93;39.63;100339.98;2880033;80;21026;-85
2022/05/16 14:23:19;;;;;;;3.22;1.67;;;;;;;27.97;39.01;100333.50;2897619;81;21090;-87
2022/05/16 14:27:39;;;;;;;5.20;2.10;;;;;;;28.01;38.60;100335.23;2902034;80;21020;-86
2022/05/16 14:31:45;;;;;;;3.50;1.67;;;;;;;28.11;39.13;100335.98;2895146;81;21035;-86
2022/05/16 14:36:00;;;;;;;5.58;1.92;;;;;;;28.06;38.74;100321.11;2892219;80;20974;-84
2022/05/16 14:40:14;;;;;;;2.65;1.80;;;;;;;28.12;38.19;100317.14;2912660;79;21090;-86
2022/05/16 14:44:23;;;;;;;1.90;1.30;;;;;;;28.09;38.06;100312.42;2935344;79;20979;-85
2022/05/16 14:48:25;;;;;;;2.62;1.35;;;;;;;28.11;38.66;100313.56;2928961;80;21011;-85
2022/05/16 14:52:29;;;;;;;3.20;1.98;;;;;;;28.18;38.89;100310.17;2921472;80;20999;-86
2022/05/16 14:56:37;;;;;;;4.20;0.95;;;;;;;28.09;37.06;100305.58;2923564;80;21075;-87
2022/05/16 15:05:00;;;;;;;2.90;1.75;;;;;;;28.24;36.72;100302.09;2891391;81;21085;-83
2022/05/16 15:09:05;;;;;;;4.42;2.10;;;;;;;28.38;37.84;100289.76;2947128;79;20939;-83
2022/05/16 15:13:06;;;;;;;5.35;1.50;;;;;;;28.31;36.74;100293.19;2929137;80;20976;-84
2022/05/16 15:17:08;;;;;;;1.55;1.42;;;;;;;28.36;36.47;100292.75;2923998;80;20971;-85
2022/05/16 15:21:10;;;;;;;3.10;1.52;;;;;;;28.37;36.34;100289.47;2944679;79;21008;-84
2022/05/16 15:25:11;;;;;;;1.98;1.17;;;;;;;28.35;36.55;100292.47;2826563;83;21365;-84
2022/05/16 15:29:12;;;;;;;4.15;1.45;;;;;;;28.32;37.40;100283.91;2859822;81;20979;-85
2022/05/16 15:33:14;;;;;;;85.77;16.48;;;;;;;28.32;37.40;100283.91;2820395;82;21046;-86
2022/05/16 15:37:20;;;;;;;4.65;1.85;;;;;;;28.27;38.48;100283.27;2828348;82;21038;-86
2022/05/16 15:41:21;;;;;;;2.90;2.20;;;;;;;28.07;36.90;100280.39;2861262;81;21039;-86
2022/05/16 15:45:22;;;;;;;3.33;1.45;;;;;;;27.95;36.59;100274.16;2825833;84;20999;-87
2022/05/16 15:49:23;;;;;;;4.62;1.65;;;;;;;27.77;37.87;100274.61;2874087;82;21066;-87
2022/05/16 15:53:25;;;;;;;2.08;1.40;;;;;;;27.49;40.85;100270.69;2867680;82;20984;-87
2022/05/16 15:57:27;;;;;;;4.60;1.15;;;;;;;27.21;40.50;100261.34;2826034;83;20980;-88
2022/05/16 16:01:29;;;;;;;4.67;2.37;;;;;;;27.07;41.26;100254.44;2873031;82;21043;-87
2022/05/16 16:09:51;;;;;;;3.80;1.62;;;;;;;26.85;41.70;100250.08;2826540;83;21566;-86
2022/05/16 16:13:52;;;;;;;4.70;1.72;;;;;;;26.75;40.53;100248.74;2889236;80;20995;-86
2022/05/16 16:17:54;;;;;;;10.93;2.17;;;;;;;26.66;41.64;100246.07;2858372;81;21692;-86
2022/05/16 16:21:56;;;;;;;11.93;1.98;;;;;;;26.54;41.38;100241.95;2850954;81;21016;-87
2022/05/16 16:25:57;;;;;;;2.35;1.40;;;;;;;26.48;40.67;100251.05;2850880;82;21098;-88
2022/05/16 16:29:58;;;;;;;5.92;1.55;;;;;;;26.44;40.70;100235.70;2845243;82;21011;-87
2022/05/16 16:34:01;;;;;;;6.60;2.30;;;;;;;26.36;40.67;100234.14;2832640;81;21031;-87
2022/05/16 16:38:06;;;;;;;4.50;1.95;;;;;;;26.32;41.17;100238.36;2808588;82;21023;-88
2022/05/16 16:42:07;;;;;;;;;;;;;;;26.23;43.25;100243.86;2922612;81;21014;-88
2022/05/16 16:46:13;;;;;;;8.33;3.87;;;;;;;26.21;45.16;100236.45;2883347;79;20101;-88
2022/05/16 16:50:16;;;;;;;8.80;4.15;;;;;;;26.17;44.75;100232.53;2931589;81;21553;-88
2022/05/16 16:58:41;;;;;;;4.75;1.90;;;;;;;26.23;44.93;100230.23;2850601;81;21063;-89
2022/05/16 17:02:46;;;;;;;4.78;1.30;;;;;;;26.29;42.65;100236.11;2910898;80;21007;-89
2022/05/16 17:06:49;;;;;;;5.05;2.02;;;;;;;26.32;41.68;100240.28;2914222;79;21016;-88
2022/05/16 17:10:56;;;;;;;9.78;2.30;;;;;;;26.29;42.12;100238.02;2926093;81;21019;-87
2022/05/16 17:14:57;;;;;;;4.70;1.37;;;;;;;26.24;43.19;100249.61;2932508;80;21009;-89
2022/05/16 17:18:58;;;;;;;5.40;1.57;;;;;;;26.17;44.20;100242.06;2901278;81;21055;-88
2022/05/16 17:23:00;;;;;;;2.87;1.75;;;;;;;26.05;44.77;100243.35;2913915;81;21685;-87
2022/05/16 17:27:01;;;;;;;5.20;1.70;;;;;;;25.97;45.66;100246.38;2913151;80;21094;-88
2022/05/16 17:31:05;;;;;;;10.68;2.67;;;;;;;25.91;44.83;100246.75;2872960;80;21070;-89
2022/05/16 17:35:08;;;;;;;21.53;7.43;;;;;;;25.87;46.48;100253.21;2929511;80;21083;-88
2022/05/16 17:39:09;;;;;;;11.95;4.50;;;;;;;25.75;44.08;100240.89;2909713;80;21014;-87
2022/05/16 17:43:12;;;;;;;121.07;21.77;;;;;;;25.61;44.02;100247.55;2926210;79;20996;-89
2022/05/16 17:47:14;;;;;;;165.12;29.32;;;;;;;25.44;43.97;100242.66;2919497;81;21523;-86
2022/05/16 17:51:23;;;;;;;9.65;3.08;;;;;;;25.22;45.45;100243.09;2913982;80;21024;-92
2022/05/16 17:55:24;;;;;;;4.58;1.85;;;;;;;25.01;46.02;100246.22;2861523;81;20990;-87
2022/05/16 17:59:26;;;;;;;1.72;1.40;;;;;;;24.79;48.42;100250.69;2904360;80;20998;-87
2022/05/16 18:03:27;;;;;;;1.57;1.20;;;;;;;24.45;46.83;100250.87;2865590;80;21522;-89
2022/05/16 18:07:28;;;;;;;4.03;1.80;;;;;;;24.14;48.24;100255.76;2910464;81;20986;-86
2022/05/16 18:15:51;;;;;;;6.40;2.08;;;;;;;23.63;49.39;100270.45;2914766;80;21000;-85
2022/05/16 18:19:54;;;;;;;2.12;1.92;;;;;;;23.42;49.96;100271.02;2880109;80;21039;-85
2022/05/16 18:23:56;;;;;;;7.33;1.98;;;;;;;23.21;49.99;100276.12;2888135;80;21075;-85
2022/05/16 18:27:57;;;;;;;4.03;2.22;;;;;;;23.02;49.79;100274.55;2866436;80;20982;-85
2022/05/16 18:31:58;;;;;;;5.53;2.40;;;;;;;22.81;49.57;100266.94;2902135;80;21546;-85
2022/05/16 18:35:59;;;;;;;8.23;3.25;;;;;;;22.67;49.83;100274.23;2946085;79;21003;-86
2022/05/16 18:40:02;;;;;;;3.00;2.42;;;;;;;22.51;49.63;100285.45;2945217;79;20991;-86
2022/05/16 18:52:44;;;;;;;4.83;1.95;;;;;;;21.98;50.15;100303.14;2895068;81;21074;-86
2022/05/16 18:56:45;;;;;;;5.58;3.42;;;;;;;21.78;50.22;100309.29;2890123;80;21062;-84
2022/05/16 19:00:49;;;;;;;6.78;3.00;;;;;;;21.62;50.16;100307.71;2888375;81;21038;-85
2022/05/16 19:04:50;;;;;;;8.48;2.90;;;;;;;21.45;50.39;100305.84;2898038;81;21031;-84
2022/05/16 19:08:52;;;;;;;6.58;2.42;;;;;;;21.36;50.50;100317.83;2917886;80;21067;-86
2022/05/16 19:12:55;;;;;;;8.55;3.10;;;;;;;21.24;50.60;100321.59;2893819;80;20995;-87
2022/05/16 19:16:57;;;;;;;6.62;2.92;;;;;;;21.11;51.01;100323.14;2910983;81;21010;-87
2022/05/16 19:20:59;;;;;;;7.25;3.55;;;;;;;20.97;51.33;100324.89;2900124;80;21009;-88
2022/05/16 19:25:05;;;;;;;6.53;3.35;;;;;;;20.80;52.19;100329.73;2924157;81;21541;-86
2022/05/16 19:33:29;;;;;;;7.40;3.67;;;;;;;20.60;52.25;100328.65;2882392;80;20990;-86
2022/05/16 19:37:30;;;;;;;7.08;3.95;;;;;;;20.51;52.75;100338.73;2902522;80;21024;-87
2022/05/16 19:41:34;;;;;;;4.62;2.85;;;;;;;20.40;52.72;100339.53;2928523;79;20987;-87
2022/05/16 19:45:36;;;;;;;11.93;4.13;;;;;;;20.31;52.82;100345.23;2918697;81;21103;-86
2022/05/16 19:49:40;;;;;;;9.95;3.17;;;;;;;20.25;53.07;100346.32;2906186;80;21025;-87
2022/05/16 19:53:42;;;;;;;6.12;3.33;;;;;;;20.18;53.14;100348.11;2921227;81;21011;-85
2022/05/16 19:57:43;;;;;;;4.70;2.40;;;;;;;20.11;53.38;100342.62;2900517;80;21094;-87
2022/05/16 20:01:46;;;;;;;6.45;3.15;;;;;;;20.06;53.61;100341.00;2864261;80;21695;-85
2022/05/16 20:05:47;;;;;;;7.37;3.20;;;;;;;20.01;53.90;100334.48;2914966;81;20961;-86
2022/05/16 20:09:48;;;;;;;7.03;2.65;;;;;;;19.95;54.14;100336.06;2921749;81;21574;-85
2022/05/16 20:13:50;;;;;;;7.45;3.22;;;;;;;19.87;54.29;100333.44;2912063;80;21014;-85
2022/05/16 20:18:17;;;;;;;12.58;3.10;;;;;;;19.79;54.46;100328.43;2905789;81;21047;-86